Terminal Aerodrome Forecast
Issued by NWS

Home | Current Version | Previous Version | Text Only | Print | Product List | Glossary On
Versions: 1 2 3 4 5 6 7 8 9 10 11 12 13 14 15 16 17 18
000
FTUS43 KIND 271100
TAFBMG
TAF
KBMG 271131Z 2712/2812 VRB03KT 6SM BR OVC008
     FM271500 04005KT P6SM OVC015
     FM271900 02006KT P6SM SCT015 BKN035
     FM272300 03005KT P6SM SCT050
     FM280200 VRB02KT P6SM SCT250
      AMD LTD TO CLD VIS AND WIND TIL 271400=

USA.gov is the U.S. government's official web portal to all federal, state and local government web resources and services.